sensor_id;sensor_type;location;lat;lon;timestamp;temperature;humidity
1259;DHT22;619;51.472;6.628;2023-04-16T00:02:02;14.10;80.60
1259;DHT22;619;51.472;6.628;2023-04-16T00:04:28;14.10;80.60
1259;DHT22;619;51.472;6.628;2023-04-16T00:06:54;14.20;80.70
1259;DHT22;619;51.472;6.628;2023-04-16T00:09:22;14.20;80.60
1259;DHT22;619;51.472;6.628;2023-04-16T00:11:50;14.00;80.70
1259;DHT22;619;51.472;6.628;2023-04-16T00:14:20;14.00;80.90
1259;DHT22;619;51.472;6.628;2023-04-16T00:16:50;14.00;80.90
1259;DHT22;619;51.472;6.628;2023-04-16T00:19:16;14.00;81.10
1259;DHT22;619;51.472;6.628;2023-04-16T00:21:43;14.00;81.20
1259;DHT22;619;51.472;6.628;2023-04-16T00:24:11;14.00;81.20
1259;DHT22;619;51.472;6.628;2023-04-16T00:26:39;13.90;81.20
1259;DHT22;619;51.472;6.628;2023-04-16T00:29:08;13.90;81.30
1259;DHT22;619;51.472;6.628;2023-04-16T00:31:38;14.00;81.40
1259;DHT22;619;51.472;6.628;2023-04-16T00:34:06;14.00;81.20
1259;DHT22;619;51.472;6.628;2023-04-16T00:36:35;14.00;81.10
1259;DHT22;619;51.472;6.628;2023-04-16T00:39:00;14.10;81.10
1259;DHT22;619;51.472;6.628;2023-04-16T00:41:26;14.00;81.10
1259;DHT22;619;51.472;6.628;2023-04-16T00:43:52;13.90;81.10
1259;DHT22;619;51.472;6.628;2023-04-16T00:46:22;13.90;81.30
1259;DHT22;619;51.472;6.628;2023-04-16T00:48:52;13.80;81.50
1259;DHT22;619;51.472;6.628;2023-04-16T00:51:23;13.90;81.60
1259;DHT22;619;51.472;6.628;2023-04-16T00:53:49;13.90;81.70
1259;DHT22;619;51.472;6.628;2023-04-16T00:56:15;13.90;81.60
1259;DHT22;619;51.472;6.628;2023-04-16T00:58:41;13.90;81.70
1259;DHT22;619;51.472;6.628;2023-04-16T01:01:09;13.90;81.70
1259;DHT22;619;51.472;6.628;2023-04-16T01:03:42;13.90;81.60
1259;DHT22;619;51.472;6.628;2023-04-16T01:06:11;13.90;81.60
1259;DHT22;619;51.472;6.628;2023-04-16T01:08:37;13.90;81.60
1259;DHT22;619;51.472;6.628;2023-04-16T01:11:03;13.90;81.60
1259;DHT22;619;51.472;6.628;2023-04-16T01:13:32;14.00;81.80
1259;DHT22;619;51.472;6.628;2023-04-16T01:15:58;14.00;81.80
1259;DHT22;619;51.472;6.628;2023-04-16T01:18:25;14.00;81.80
1259;DHT22;619;51.472;6.628;2023-04-16T01:20:55;14.00;82.40
1259;DHT22;619;51.472;6.628;2023-04-16T01:23:23;14.00;81.60
1259;DHT22;619;51.472;6.628;2023-04-16T01:25:51;14.00;81.70
1259;DHT22;619;51.472;6.628;2023-04-16T01:28:19;14.00;81.90
1259;DHT22;619;51.472;6.628;2023-04-16T01:30:45;13.90;82.00
1259;DHT22;619;51.472;6.628;2023-04-16T01:33:14;13.90;82.20
1259;DHT22;619;51.472;6.628;2023-04-16T01:35:45;14.00;82.40
1259;DHT22;619;51.472;6.628;2023-04-16T01:38:15;13.90;82.50
1259;DHT22;619;51.472;6.628;2023-04-16T01:40:45;13.80;82.50
1259;DHT22;619;51.472;6.628;2023-04-16T01:43:11;13.90;82.80
1259;DHT22;619;51.472;6.628;2023-04-16T01:45:36;13.80;82.80
1259;DHT22;619;51.472;6.628;2023-04-16T01:48:07;13.80;83.20
1259;DHT22;619;51.472;6.628;2023-04-16T01:50:35;13.90;83.20
1259;DHT22;619;51.472;6.628;2023-04-16T01:53:08;14.00;83.20
1259;DHT22;619;51.472;6.628;2023-04-16T01:55:36;14.00;82.80
1259;DHT22;619;51.472;6.628;2023-04-16T01:58:01;14.00;82.70
1259;DHT22;619;51.472;6.628;2023-04-16T02:00:36;14.00;82.80
1259;DHT22;619;51.472;6.628;2023-04-16T02:03:02;14.00;82.90
1259;DHT22;619;51.472;6.628;2023-04-16T02:05:27;14.00;82.90
1259;DHT22;619;51.472;6.628;2023-04-16T02:07:55;14.00;83.00
1259;DHT22;619;51.472;6.628;2023-04-16T02:10:23;14.00;83.00
1259;DHT22;619;51.472;6.628;2023-04-16T02:12:51;14.00;83.10
1259;DHT22;619;51.472;6.628;2023-04-16T02:15:19;14.00;83.30
1259;DHT22;619;51.472;6.628;2023-04-16T02:17:52;14.10;83.40
1259;DHT22;619;51.472;6.628;2023-04-16T02:20:21;14.10;83.30
1259;DHT22;619;51.472;6.628;2023-04-16T02:22:47;14.10;83.30
1259;DHT22;619;51.472;6.628;2023-04-16T02:25:12;14.10;83.20
1259;DHT22;619;51.472;6.628;2023-04-16T02:27:41;14.10;83.30
1259;DHT22;619;51.472;6.628;2023-04-16T02:30:09;14.20;83.50
1259;DHT22;619;51.472;6.628;2023-04-16T02:32:35;14.10;83.40
1259;DHT22;619;51.472;6.628;2023-04-16T02:35:00;14.20;83.50
1259;DHT22;619;51.472;6.628;2023-04-16T02:37:30;14.20;83.50
1259;DHT22;619;51.472;6.628;2023-04-16T02:39:56;14.20;83.50
1259;DHT22;619;51.472;6.628;2023-04-16T02:42:24;14.20;83.40
1259;DHT22;619;51.472;6.628;2023-04-16T02:44:55;14.20;83.50
1259;DHT22;619;51.472;6.628;2023-04-16T02:47:20;14.30;83.50
1259;DHT22;619;51.472;6.628;2023-04-16T02:49:46;14.30;83.40
1259;DHT22;619;51.472;6.628;2023-04-16T02:52:16;14.30;83.40
1259;DHT22;619;51.472;6.628;2023-04-16T02:54:41;14.30;83.40
1259;DHT22;619;51.472;6.628;2023-04-16T02:57:07;14.30;83.50
1259;DHT22;619;51.472;6.628;2023-04-16T02:59:35;14.30;83.60
1259;DHT22;619;51.472;6.628;2023-04-16T03:02:03;14.20;83.60
1259;DHT22;619;51.472;6.628;2023-04-16T03:04:31;14.20;83.80
1259;DHT22;619;51.472;6.628;2023-04-16T03:06:59;14.20;83.80
1259;DHT22;619;51.472;6.628;2023-04-16T03:09:25;14.20;83.90
1259;DHT22;619;51.472;6.628;2023-04-16T03:11:51;14.20;84.10
1259;DHT22;619;51.472;6.628;2023-04-16T03:14:16;14.20;84.20
1259;DHT22;619;51.472;6.628;2023-04-16T03:16:44;14.10;84.30
1259;DHT22;619;51.472;6.628;2023-04-16T03:19:15;14.10;84.50
1259;DHT22;619;51.472;6.628;2023-04-16T03:21:42;14.10;84.60
1259;DHT22;619;51.472;6.628;2023-04-16T03:24:08;14.20;84.80
1259;DHT22;619;51.472;6.628;2023-04-16T03:26:34;14.20;84.70
1259;DHT22;619;51.472;6.628;2023-04-16T03:29:02;14.20;84.60
1259;DHT22;619;51.472;6.628;2023-04-16T03:31:32;14.30;84.60
1259;DHT22;619;51.472;6.628;2023-04-16T03:33:57;14.30;84.50
1259;DHT22;619;51.472;6.628;2023-04-16T03:36:26;14.40;84.30
1259;DHT22;619;51.472;6.628;2023-04-16T03:38:52;14.40;84.20
1259;DHT22;619;51.472;6.628;2023-04-16T03:41:24;14.50;84.10
1259;DHT22;619;51.472;6.628;2023-04-16T03:43:50;14.50;84.00
1259;DHT22;619;51.472;6.628;2023-04-16T03:46:15;14.50;83.80
1259;DHT22;619;51.472;6.628;2023-04-16T03:48:43;14.50;83.90
1259;DHT22;619;51.472;6.628;2023-04-16T03:51:11;14.50;84.00
1259;DHT22;619;51.472;6.628;2023-04-16T03:53:41;14.40;83.90
1259;DHT22;619;51.472;6.628;2023-04-16T03:56:11;14.40;84.00
1259;DHT22;619;51.472;6.628;2023-04-16T03:58:42;14.40;84.10
1259;DHT22;619;51.472;6.628;2023-04-16T04:01:09;14.40;84.20
1259;DHT22;619;51.472;6.628;2023-04-16T04:03:42;14.40;84.30
1259;DHT22;619;51.472;6.628;2023-04-16T04:06:08;14.30;85.00
1259;DHT22;619;51.472;6.628;2023-04-16T04:08:36;14.30;84.50
1259;DHT22;619;51.472;6.628;2023-04-16T04:11:09;14.30;84.60
1259;DHT22;619;51.472;6.628;2023-04-16T04:13:34;14.30;85.40
1259;DHT22;619;51.472;6.628;2023-04-16T04:16:00;14.30;84.70
1259;DHT22;619;51.472;6.628;2023-04-16T04:18:28;14.30;84.80
1259;DHT22;619;51.472;6.628;2023-04-16T04:20:54;14.30;84.80
1259;DHT22;619;51.472;6.628;2023-04-16T04:23:19;14.30;84.90
1259;DHT22;619;51.472;6.628;2023-04-16T04:25:45;14.30;84.90
1259;DHT22;619;51.472;6.628;2023-04-16T04:28:13;14.30;84.80
1259;DHT22;619;51.472;6.628;2023-04-16T04:30:39;14.30;84.80
1259;DHT22;619;51.472;6.628;2023-04-16T04:33:05;14.40;84.80
1259;DHT22;619;51.472;6.628;2023-04-16T04:35:30;14.40;84.80
1259;DHT22;619;51.472;6.628;2023-04-16T04:37:58;14.40;84.70
1259;DHT22;619;51.472;6.628;2023-04-16T04:40:24;14.40;84.60
1259;DHT22;619;51.472;6.628;2023-04-16T04:42:54;14.40;84.60
1259;DHT22;619;51.472;6.628;2023-04-16T04:45:24;14.50;84.60
1259;DHT22;619;51.472;6.628;2023-04-16T04:47:53;14.50;84.50
1259;DHT22;619;51.472;6.628;2023-04-16T04:50:20;14.50;84.40
1259;DHT22;619;51.472;6.628;2023-04-16T04:52:48;14.50;84.40
1259;DHT22;619;51.472;6.628;2023-04-16T04:55:19;14.50;84.30
1259;DHT22;619;51.472;6.628;2023-04-16T04:57:44;14.50;84.30
1259;DHT22;619;51.472;6.628;2023-04-16T05:00:12;14.50;84.40
1259;DHT22;619;51.472;6.628;2023-04-16T05:02:38;14.60;84.50
1259;DHT22;619;51.472;6.628;2023-04-16T05:05:04;14.60;84.40
1259;DHT22;619;51.472;6.628;2023-04-16T05:07:34;14.70;84.30
1259;DHT22;619;51.472;6.628;2023-04-16T05:10:02;14.70;84.20
1259;DHT22;619;51.472;6.628;2023-04-16T05:12:30;14.70;84.10
1259;DHT22;619;51.472;6.628;2023-04-16T05:14:56;14.80;84.10
1259;DHT22;619;51.472;6.628;2023-04-16T05:17:24;14.80;83.90
1259;DHT22;619;51.472;6.628;2023-04-16T05:19:49;14.80;83.90
1259;DHT22;619;51.472;6.628;2023-04-16T05:22:15;14.80;84.00
1259;DHT22;619;51.472;6.628;2023-04-16T05:24:43;14.80;83.90
1259;DHT22;619;51.472;6.628;2023-04-16T05:27:11;14.80;83.90
1259;DHT22;619;51.472;6.628;2023-04-16T05:29:41;14.80;84.00
1259;DHT22;619;51.472;6.628;2023-04-16T05:32:09;14.80;84.20
1259;DHT22;619;51.472;6.628;2023-04-16T05:34:35;14.60;84.20
1259;DHT22;619;51.472;6.628;2023-04-16T05:37:00;14.60;84.60
1259;DHT22;619;51.472;6.628;2023-04-16T05:39:31;14.60;84.80
1259;DHT22;619;51.472;6.628;2023-04-16T05:41:56;14.60;84.70
1259;DHT22;619;51.472;6.628;2023-04-16T05:44:22;14.60;84.80
1259;DHT22;619;51.472;6.628;2023-04-16T05:46:52;14.60;84.90
1259;DHT22;619;51.472;6.628;2023-04-16T05:49:18;14.60;84.90
1259;DHT22;619;51.472;6.628;2023-04-16T05:51:44;14.60;85.00
1259;DHT22;619;51.472;6.628;2023-04-16T05:54:10;14.60;85.10
1259;DHT22;619;51.472;6.628;2023-04-16T05:56:39;14.60;85.80
1259;DHT22;619;51.472;6.628;2023-04-16T05:59:10;14.70;85.10
1259;DHT22;619;51.472;6.628;2023-04-16T06:01:40;14.70;85.00
1259;DHT22;619;51.472;6.628;2023-04-16T06:04:11;14.70;84.90
1259;DHT22;619;51.472;6.628;2023-04-16T06:06:39;14.70;84.70
1259;DHT22;619;51.472;6.628;2023-04-16T06:09:06;14.70;84.60
1259;DHT22;619;51.472;6.628;2023-04-16T06:11:34;14.80;84.60
1259;DHT22;619;51.472;6.628;2023-04-16T06:14:02;14.80;84.50
1259;DHT22;619;51.472;6.628;2023-04-16T06:16:32;14.90;84.30
1259;DHT22;619;51.472;6.628;2023-04-16T06:19:00;14.90;84.90
1259;DHT22;619;51.472;6.628;2023-04-16T06:21:28;14.90;84.10
1259;DHT22;619;51.472;6.628;2023-04-16T06:23:56;14.90;84.00
1259;DHT22;619;51.472;6.628;2023-04-16T06:26:24;14.90;84.00
1259;DHT22;619;51.472;6.628;2023-04-16T06:28:50;15.00;84.10
1259;DHT22;619;51.472;6.628;2023-04-16T06:31:20;15.00;83.90
1259;DHT22;619;51.472;6.628;2023-04-16T06:33:45;15.10;83.70
1259;DHT22;619;51.472;6.628;2023-04-16T06:36:13;15.10;83.60
1259;DHT22;619;51.472;6.628;2023-04-16T06:38:44;15.10;83.40
1259;DHT22;619;51.472;6.628;2023-04-16T06:41:12;15.20;83.30
1259;DHT22;619;51.472;6.628;2023-04-16T06:43:40;15.20;83.20
1259;DHT22;619;51.472;6.628;2023-04-16T06:46:08;15.20;82.90
1259;DHT22;619;51.472;6.628;2023-04-16T06:48:36;15.20;82.60
1259;DHT22;619;51.472;6.628;2023-04-16T06:51:06;15.30;82.80
1259;DHT22;619;51.472;6.628;2023-04-16T06:53:32;15.40;82.50
1259;DHT22;619;51.472;6.628;2023-04-16T06:55:58;15.40;82.30
1259;DHT22;619;51.472;6.628;2023-04-16T06:58:25;15.40;81.70
1259;DHT22;619;51.472;6.628;2023-04-16T07:00:51;15.40;81.90
1259;DHT22;619;51.472;6.628;2023-04-16T07:03:17;15.40;81.70
1259;DHT22;619;51.472;6.628;2023-04-16T07:05:47;15.50;81.60
1259;DHT22;619;51.472;6.628;2023-04-16T07:08:13;15.50;81.20
1259;DHT22;619;51.472;6.628;2023-04-16T07:10:41;15.50;80.80
1259;DHT22;619;51.472;6.628;2023-04-16T07:13:11;15.50;80.60
1259;DHT22;619;51.472;6.628;2023-04-16T07:15:40;15.40;80.00
1259;DHT22;619;51.472;6.628;2023-04-16T07:18:08;15.40;79.80
1259;DHT22;619;51.472;6.628;2023-04-16T07:20:35;15.50;79.90
1259;DHT22;619;51.472;6.628;2023-04-16T07:23:01;15.50;80.00
1259;DHT22;619;51.472;6.628;2023-04-16T07:25:31;15.60;79.90
1259;DHT22;619;51.472;6.628;2023-04-16T07:27:57;15.70;79.80
1259;DHT22;619;51.472;6.628;2023-04-16T07:30:23;15.80;79.50
1259;DHT22;619;51.472;6.628;2023-04-16T07:32:49;15.90;79.50
1259;DHT22;619;51.472;6.628;2023-04-16T07:35:16;16.00;79.50
1259;DHT22;619;51.472;6.628;2023-04-16T07:37:44;16.10;79.20
1259;DHT22;619;51.472;6.628;2023-04-16T07:40:14;16.10;78.90
1259;DHT22;619;51.472;6.628;2023-04-16T07:42:39;16.20;78.80
1259;DHT22;619;51.472;6.628;2023-04-16T07:45:07;16.30;78.60
1259;DHT22;619;51.472;6.628;2023-04-16T07:47:36;16.40;78.50
1259;DHT22;619;51.472;6.628;2023-04-16T07:50:01;16.40;78.30
1259;DHT22;619;51.472;6.628;2023-04-16T07:52:30;16.40;78.00
1259;DHT22;619;51.472;6.628;2023-04-16T07:54:58;16.50;77.80
1259;DHT22;619;51.472;6.628;2023-04-16T07:57:30;16.50;77.70
1259;DHT22;619;51.472;6.628;2023-04-16T07:59:58;16.60;77.60
1259;DHT22;619;51.472;6.628;2023-04-16T08:02:29;16.70;77.50
1259;DHT22;619;51.472;6.628;2023-04-16T08:04:54;16.70;77.20
1259;DHT22;619;51.472;6.628;2023-04-16T08:07:27;16.80;76.60
1259;DHT22;619;51.472;6.628;2023-04-16T08:09:53;16.80;76.20
1259;DHT22;619;51.472;6.628;2023-04-16T08:12:21;16.70;75.80
1259;DHT22;619;51.472;6.628;2023-04-16T08:14:49;16.60;75.90
1259;DHT22;619;51.472;6.628;2023-04-16T08:17:17;16.60;75.90
1259;DHT22;619;51.472;6.628;2023-04-16T08:19:45;16.60;76.40
1259;DHT22;619;51.472;6.628;2023-04-16T08:22:16;16.60;76.40
1259;DHT22;619;51.472;6.628;2023-04-16T08:24:44;16.70;76.60
1259;DHT22;619;51.472;6.628;2023-04-16T08:27:12;16.80;76.00
1259;DHT22;619;51.472;6.628;2023-04-16T08:29:40;16.80;76.00
1259;DHT22;619;51.472;6.628;2023-04-16T08:32:08;16.90;75.50
1259;DHT22;619;51.472;6.628;2023-04-16T08:34:37;16.90;75.80
1259;DHT22;619;51.472;6.628;2023-04-16T08:37:02;17.00;75.50
1259;DHT22;619;51.472;6.628;2023-04-16T08:39:30;17.20;75.80
1259;DHT22;619;51.472;6.628;2023-04-16T08:41:59;17.30;75.30
1259;DHT22;619;51.472;6.628;2023-04-16T08:44:36;17.50;75.10
1259;DHT22;619;51.472;6.628;2023-04-16T08:47:06;17.70;74.30
1259;DHT22;619;51.472;6.628;2023-04-16T08:49:44;17.80;73.60
1259;DHT22;619;51.472;6.628;2023-04-16T08:52:18;17.90;72.00
1259;DHT22;619;51.472;6.628;2023-04-16T08:54:55;18.00;72.10
1259;DHT22;619;51.472;6.628;2023-04-16T08:57:29;18.00;71.90
1259;DHT22;619;51.472;6.628;2023-04-16T09:00:00;18.00;71.20
1259;DHT22;619;51.472;6.628;2023-04-16T09:02:31;17.90;71.20
1259;DHT22;619;51.472;6.628;2023-04-16T09:04:58;17.90;71.30
1259;DHT22;619;51.472;6.628;2023-04-16T09:07:26;17.90;71.30
1259;DHT22;619;51.472;6.628;2023-04-16T09:09:59;17.90;71.10
1259;DHT22;619;51.472;6.628;2023-04-16T09:12:26;17.90;71.30
1259;DHT22;619;51.472;6.628;2023-04-16T09:14:52;18.00;71.50
1259;DHT22;619;51.472;6.628;2023-04-16T09:17:20;18.10;71.40
1259;DHT22;619;51.472;6.628;2023-04-16T09:19:46;18.20;71.20
1259;DHT22;619;51.472;6.628;2023-04-16T09:22:12;18.30;71.00
1259;DHT22;619;51.472;6.628;2023-04-16T09:24:37;18.40;70.60
1259;DHT22;619;51.472;6.628;2023-04-16T09:27:03;18.50;70.10
1259;DHT22;619;51.472;6.628;2023-04-16T09:29:37;18.50;69.80
1259;DHT22;619;51.472;6.628;2023-04-16T09:32:11;18.50;69.50
1259;DHT22;619;51.472;6.628;2023-04-16T09:34:59;18.50;69.50
1259;DHT22;619;51.472;6.628;2023-04-16T09:37:27;18.50;69.90
1259;DHT22;619;51.472;6.628;2023-04-16T09:42:32;18.60;69.90
1259;DHT22;619;51.472;6.628;2023-04-16T09:45:01;18.60;70.20
1259;DHT22;619;51.472;6.628;2023-04-16T09:47:42;18.70;70.10
1259;DHT22;619;51.472;6.628;2023-04-16T09:50:17;18.70;69.40
1259;DHT22;619;51.472;6.628;2023-04-16T09:52:49;18.70;69.20
1259;DHT22;619;51.472;6.628;2023-04-16T09:55:16;18.60;69.60
1259;DHT22;619;51.472;6.628;2023-04-16T09:57:46;18.60;70.10
1259;DHT22;619;51.472;6.628;2023-04-16T10:00:17;18.70;70.40
1259;DHT22;619;51.472;6.628;2023-04-16T10:02:45;18.80;70.00
1259;DHT22;619;51.472;6.628;2023-04-16T10:05:13;18.90;69.90
1259;DHT22;619;51.472;6.628;2023-04-16T10:07:42;19.10;70.00
1259;DHT22;619;51.472;6.628;2023-04-16T10:10:09;19.20;69.30
1259;DHT22;619;51.472;6.628;2023-04-16T10:12:34;19.40;69.50
1259;DHT22;619;51.472;6.628;2023-04-16T10:15:00;19.60;68.40
1259;DHT22;619;51.472;6.628;2023-04-16T10:17:29;19.80;68.10
1259;DHT22;619;51.472;6.628;2023-04-16T10:19:57;19.90;67.10
1259;DHT22;619;51.472;6.628;2023-04-16T10:22:22;19.90;64.70
1259;DHT22;619;51.472;6.628;2023-04-16T10:24:49;19.80;65.70
1259;DHT22;619;51.472;6.628;2023-04-16T10:27:17;19.90;65.30
1259;DHT22;619;51.472;6.628;2023-04-16T10:29:47;19.90;66.00
1259;DHT22;619;51.472;6.628;2023-04-16T10:32:13;20.00;66.40
1259;DHT22;619;51.472;6.628;2023-04-16T10:34:40;20.10;66.10
1259;DHT22;619;51.472;6.628;2023-04-16T10:37:05;20.20;65.10
1259;DHT22;619;51.472;6.628;2023-04-16T10:39:34;20.30;63.90
1259;DHT22;619;51.472;6.628;2023-04-16T10:42:09;20.50;64.30
1259;DHT22;619;51.472;6.628;2023-04-16T10:44:35;20.70;64.60
1259;DHT22;619;51.472;6.628;2023-04-16T10:47:09;20.80;64.70
1259;DHT22;619;51.472;6.628;2023-04-16T10:49:37;21.00;63.90
1259;DHT22;619;51.472;6.628;2023-04-16T10:52:15;21.10;63.60
1259;DHT22;619;51.472;6.628;2023-04-16T10:54:41;21.30;62.40
1259;DHT22;619;51.472;6.628;2023-04-16T10:57:15;21.30;62.50
1259;DHT22;619;51.472;6.628;2023-04-16T10:59:44;21.30;61.70
1259;DHT22;619;51.472;6.628;2023-04-16T11:02:17;21.30;62.00
1259;DHT22;619;51.472;6.628;2023-04-16T11:04:46;21.40;61.80
1259;DHT22;619;51.472;6.628;2023-04-16T11:09:45;21.70;62.80
1259;DHT22;619;51.472;6.628;2023-04-16T11:12:16;21.80;61.10
1259;DHT22;619;51.472;6.628;2023-04-16T11:19:58;21.50;60.00
1259;DHT22;619;51.472;6.628;2023-04-16T11:22:23;21.50;59.80
1259;DHT22;619;51.472;6.628;2023-04-16T11:24:57;21.40;59.80
1259;DHT22;619;51.472;6.628;2023-04-16T11:27:23;21.30;60.50
1259;DHT22;619;51.472;6.628;2023-04-16T11:30:06;21.20;60.40
1259;DHT22;619;51.472;6.628;2023-04-16T11:32:35;21.20;59.40
1259;DHT22;619;51.472;6.628;2023-04-16T11:35:12;21.20;58.80
1259;DHT22;619;51.472;6.628;2023-04-16T11:37:38;21.20;59.10
1259;DHT22;619;51.472;6.628;2023-04-16T11:40:07;21.30;59.40
1259;DHT22;619;51.472;6.628;2023-04-16T11:42:40;21.30;59.20
1259;DHT22;619;51.472;6.628;2023-04-16T11:45:10;21.40;59.60
1259;DHT22;619;51.472;6.628;2023-04-16T11:47:42;21.50;59.20
1259;DHT22;619;51.472;6.628;2023-04-16T11:50:21;21.50;58.30
1259;DHT22;619;51.472;6.628;2023-04-16T11:52:50;21.50;57.80
1259;DHT22;619;51.472;6.628;2023-04-16T11:55:16;21.60;58.00
1259;DHT22;619;51.472;6.628;2023-04-16T11:57:45;21.60;58.30
1259;DHT22;619;51.472;6.628;2023-04-16T12:00:11;21.70;58.70
1259;DHT22;619;51.472;6.628;2023-04-16T12:02:53;21.70;58.00
1259;DHT22;619;51.472;6.628;2023-04-16T12:05:25;21.60;57.30
1259;DHT22;619;51.472;6.628;2023-04-16T12:07:56;21.60;58.10
1259;DHT22;619;51.472;6.628;2023-04-16T12:10:22;21.60;58.50
1259;DHT22;619;51.472;6.628;2023-04-16T12:12:50;21.60;58.70
1259;DHT22;619;51.472;6.628;2023-04-16T12:15:16;21.60;58.40
1259;DHT22;619;51.472;6.628;2023-04-16T12:17:42;21.70;58.40
1259;DHT22;619;51.472;6.628;2023-04-16T12:20:11;21.80;58.60
1259;DHT22;619;51.472;6.628;2023-04-16T12:22:44;21.90;59.00
1259;DHT22;619;51.472;6.628;2023-04-16T12:25:15;21.90;57.40
1259;DHT22;619;51.472;6.628;2023-04-16T12:27:53;21.90;58.30
1259;DHT22;619;51.472;6.628;2023-04-16T12:30:24;22.10;58.40
1259;DHT22;619;51.472;6.628;2023-04-16T12:35:36;22.40;58.70
1259;DHT22;619;51.472;6.628;2023-04-16T12:38:02;22.50;57.10
1259;DHT22;619;51.472;6.628;2023-04-16T12:40:28;22.50;56.90
1259;DHT22;619;51.472;6.628;2023-04-16T12:42:56;22.60;57.10
1259;DHT22;619;51.472;6.628;2023-04-16T12:45:22;22.60;57.80
1259;DHT22;619;51.472;6.628;2023-04-16T12:47:53;22.70;57.60
1259;DHT22;619;51.472;6.628;2023-04-16T12:50:20;22.70;55.90
1259;DHT22;619;51.472;6.628;2023-04-16T12:52:48;22.80;56.70
1259;DHT22;619;51.472;6.628;2023-04-16T12:55:13;22.90;55.90
1259;DHT22;619;51.472;6.628;2023-04-16T12:57:41;22.90;55.70
1259;DHT22;619;51.472;6.628;2023-04-16T13:00:07;22.90;56.10
1259;DHT22;619;51.472;6.628;2023-04-16T13:02:34;22.80;56.00
1259;DHT22;619;51.472;6.628;2023-04-16T13:05:00;22.80;56.10
1259;DHT22;619;51.472;6.628;2023-04-16T13:07:29;22.70;56.70
1259;DHT22;619;51.472;6.628;2023-04-16T13:09:58;22.70;56.90
1259;DHT22;619;51.472;6.628;2023-04-16T13:12:24;22.70;56.30
1259;DHT22;619;51.472;6.628;2023-04-16T13:14:51;22.60;56.10
1259;DHT22;619;51.472;6.628;2023-04-16T13:17:17;22.50;56.70
1259;DHT22;619;51.472;6.628;2023-04-16T13:19:42;22.40;56.20
1259;DHT22;619;51.472;6.628;2023-04-16T13:22:08;22.30;56.50
1259;DHT22;619;51.472;6.628;2023-04-16T13:24:34;22.20;56.70
1259;DHT22;619;51.472;6.628;2023-04-16T13:26:59;22.10;57.40
1259;DHT22;619;51.472;6.628;2023-04-16T13:29:25;22.20;57.50
1259;DHT22;619;51.472;6.628;2023-04-16T13:31:51;22.10;57.10
1259;DHT22;619;51.472;6.628;2023-04-16T13:34:19;22.10;57.10
1259;DHT22;619;51.472;6.628;2023-04-16T13:36:47;22.10;57.30
1259;DHT22;619;51.472;6.628;2023-04-16T13:39:13;22.20;57.40
1259;DHT22;619;51.472;6.628;2023-04-16T13:41:42;22.20;57.40
1259;DHT22;619;51.472;6.628;2023-04-16T13:44:08;22.20;57.40
1259;DHT22;619;51.472;6.628;2023-04-16T13:46:33;22.10;57.90
1259;DHT22;619;51.472;6.628;2023-04-16T13:48:59;22.20;57.80
1259;DHT22;619;51.472;6.628;2023-04-16T13:51:25;22.20;57.50
1259;DHT22;619;51.472;6.628;2023-04-16T13:53:55;22.20;56.80
1259;DHT22;619;51.472;6.628;2023-04-16T13:56:23;22.20;57.00
1259;DHT22;619;51.472;6.628;2023-04-16T13:58:49;22.10;57.40
1259;DHT22;619;51.472;6.628;2023-04-16T14:01:16;22.00;57.00
1259;DHT22;619;51.472;6.628;2023-04-16T14:03:42;22.00;57.40
1259;DHT22;619;51.472;6.628;2023-04-16T14:06:10;21.90;57.60
1259;DHT22;619;51.472;6.628;2023-04-16T14:08:35;21.80;58.10
1259;DHT22;619;51.472;6.628;2023-04-16T14:11:05;21.80;58.20
1259;DHT22;619;51.472;6.628;2023-04-16T14:13:33;21.80;57.90
1259;DHT22;619;51.472;6.628;2023-04-16T14:15:59;21.80;57.70
1259;DHT22;619;51.472;6.628;2023-04-16T14:18:27;21.70;57.60
1259;DHT22;619;51.472;6.628;2023-04-16T14:20:52;21.60;57.50
1259;DHT22;619;51.472;6.628;2023-04-16T14:23:18;21.50;57.70
1259;DHT22;619;51.472;6.628;2023-04-16T14:25:46;21.40;58.00
1259;DHT22;619;51.472;6.628;2023-04-16T14:28:14;21.40;58.60
1259;DHT22;619;51.472;6.628;2023-04-16T14:30:40;21.50;59.10
1259;DHT22;619;51.472;6.628;2023-04-16T14:33:08;21.70;59.20
1259;DHT22;619;51.472;6.628;2023-04-16T14:35:33;21.80;58.70
1259;DHT22;619;51.472;6.628;2023-04-16T14:38:00;22.00;58.60
1259;DHT22;619;51.472;6.628;2023-04-16T14:40:26;22.10;58.40
1259;DHT22;619;51.472;6.628;2023-04-16T14:42:52;22.30;58.50
1259;DHT22;619;51.472;6.628;2023-04-16T14:45:17;22.50;57.90
1259;DHT22;619;51.472;6.628;2023-04-16T14:47:45;22.80;58.20
1259;DHT22;619;51.472;6.628;2023-04-16T14:50:15;23.10;57.70
1259;DHT22;619;51.472;6.628;2023-04-16T14:52:40;23.50;56.40
1259;DHT22;619;51.472;6.628;2023-04-16T14:55:06;23.70;55.60
1259;DHT22;619;51.472;6.628;2023-04-16T14:57:34;23.80;55.00
1259;DHT22;619;51.472;6.628;2023-04-16T15:00:04;23.90;54.60
1259;DHT22;619;51.472;6.628;2023-04-16T15:02:38;23.90;54.00
1259;DHT22;619;51.472;6.628;2023-04-16T15:05:04;23.70;54.10
1259;DHT22;619;51.472;6.628;2023-04-16T15:07:32;23.50;54.40
1259;DHT22;619;51.472;6.628;2023-04-16T15:10:00;23.30;54.80
1259;DHT22;619;51.472;6.628;2023-04-16T15:12:25;23.10;55.10
1259;DHT22;619;51.472;6.628;2023-04-16T15:14:53;22.90;55.90
1259;DHT22;619;51.472;6.628;2023-04-16T15:17:19;22.70;56.10
1259;DHT22;619;51.472;6.628;2023-04-16T15:19:45;22.50;56.30
1259;DHT22;619;51.472;6.628;2023-04-16T15:22:13;22.40;56.90
1259;DHT22;619;51.472;6.628;2023-04-16T15:24:39;22.20;57.40
1259;DHT22;619;51.472;6.628;2023-04-16T15:27:07;22.00;57.30
1259;DHT22;619;51.472;6.628;2023-04-16T15:29:34;21.90;57.80
1259;DHT22;619;51.472;6.628;2023-04-16T15:32:02;21.80;57.90
1259;DHT22;619;51.472;6.628;2023-04-16T15:34:28;21.70;58.10
1259;DHT22;619;51.472;6.628;2023-04-16T15:36:54;21.60;58.30
1259;DHT22;619;51.472;6.628;2023-04-16T15:39:20;21.50;58.80
1259;DHT22;619;51.472;6.628;2023-04-16T15:41:46;21.30;60.60
1259;DHT22;619;51.472;6.628;2023-04-16T15:44:11;21.00;62.30
1259;DHT22;619;51.472;6.628;2023-04-16T15:46:39;20.80;63.40
1259;DHT22;619;51.472;6.628;2023-04-16T15:49:07;20.50;64.30
1259;DHT22;619;51.472;6.628;2023-04-16T15:51:33;20.20;65.60
1259;DHT22;619;51.472;6.628;2023-04-16T15:54:00;19.80;66.90
1259;DHT22;619;51.472;6.628;2023-04-16T15:56:28;19.70;67.50
1259;DHT22;619;51.472;6.628;2023-04-16T15:58:53;19.50;68.20
1259;DHT22;619;51.472;6.628;2023-04-16T16:01:21;19.40;68.80
1259;DHT22;619;51.472;6.628;2023-04-16T16:03:47;19.30;69.50
1259;DHT22;619;51.472;6.628;2023-04-16T16:06:12;19.10;70.10
1259;DHT22;619;51.472;6.628;2023-04-16T16:08:42;18.90;70.80
1259;DHT22;619;51.472;6.628;2023-04-16T16:11:08;18.90;71.60
1259;DHT22;619;51.472;6.628;2023-04-16T16:13:33;18.80;72.10
1259;DHT22;619;51.472;6.628;2023-04-16T16:16:02;18.70;73.30
1259;DHT22;619;51.472;6.628;2023-04-16T16:18:28;18.60;72.90
1259;DHT22;619;51.472;6.628;2023-04-16T16:20:57;18.60;73.40
1259;DHT22;619;51.472;6.628;2023-04-16T16:23:23;18.50;73.50
1259;DHT22;619;51.472;6.628;2023-04-16T16:25:50;18.50;73.70
1259;DHT22;619;51.472;6.628;2023-04-16T16:28:18;18.50;73.70
1259;DHT22;619;51.472;6.628;2023-04-16T16:30:45;18.50;73.90
1259;DHT22;619;51.472;6.628;2023-04-16T16:33:12;18.50;74.20
1259;DHT22;619;51.472;6.628;2023-04-16T16:35:40;18.50;74.30